This is the latest recevied weather packets stored in our database for station/object LA9UTA-13. If no packets are shown the sender has not sent any weather packets the latest 10 day(s).
| Time | Temp. | Humidity | Pressure | Rain* | Wind** | Luminosity | Snow |
|---|---|---|---|---|---|---|---|
| 1777982283 | 8.33° C | 28% | 1009.4 hPa | 0 mm | - | 343 W/m² | - |
| 1777981082 | 8.89° C | 27% | 1009.3 hPa | 0 mm | - | 671 W/m² | - |
| 1777979882 | 8.33° C | 29% | 1009.4 hPa | 0 mm | - | 640 W/m² | - |
| 1777978682 | 7.22° C | 32% | 1009.5 hPa | 0 mm | - | 522 W/m² | - |
| 1777977482 | 6.67° C | 33% | 1009.6 hPa | 0 mm | - | 497 W/m² | - |
| 1777976282 | 7.22° C | 35% | 1009.5 hPa | 0 mm | - | 627 W/m² | - |
| 1777975084 | 7.78° C | 31% | 1010.5 hPa | 0 mm | - | 177 W/m² | - |
| 1777973882 | 6.11° C | 35% | 1009.6 hPa | 0 mm | - | 553 W/m² | - |
| 1777972682 | 5° C | 38% | 1009.8 hPa | 0 mm | - | 151 W/m² | - |
| 1777971482 | 6.67° C | 38% | 1009.6 hPa | 0 mm | - | 297 W/m² | - |
| 1777970282 | 5.56° C | 38% | 1009.7 hPa | 0 mm | - | 500 W/m² | - |
| 1777969082 | 5° C | 39% | 1009.7 hPa | 0 mm | - | 521 W/m² | - |
| 1777968297 | 6.11° C | 42% | 1009.7 hPa | 0 mm | - | 347 W/m² | - |
| 1777967882 | 5.56° C | 39% | 1009.7 hPa | 0 mm | - | 458 W/m² | - |
| 1777966682 | 6.11° C | 42% | 1009.7 hPa | 0 mm | - | 347 W/m² | - |
| 1777965482 | 5° C | 42% | 1009.8 hPa | 0 mm | - | 312 W/m² | - |
| 1777964282 | 3.89° C | 44% | 1009.8 hPa | 0 mm | - | 273 W/m² | - |
| 1777963082 | 3.89° C | 44% | 1009.8 hPa | 0 mm | - | 236 W/m² | - |
| 1777961882 | 3.33° C | 54% | 1009.9 hPa | 0 mm | - | 195 W/m² | - |
| 1777960682 | 4.44° C | 45% | 1009.8 hPa | 0 mm | - | 50 W/m² | - |
| 1777959482 | 5.56° C | 50% | 1009.7 hPa | 0 mm | - | 123 W/m² | - |
| 1777958282 | 3.33° C | 57% | 1009.9 hPa | 0 mm | - | 94 W/m² | - |
| 1777957082 | 3.33° C | 57% | 1008.9 hPa | 0 mm | - | 68 W/m² | - |
| 1777955882 | 1.67° C | 58% | 1009.1 hPa | 0 mm | - | 47 W/m² | - |
| 1777954682 | 2.22° C | 59% | 1009 hPa | 0 mm | - | 31 W/m² | - |
* Rain latest hour (hover to see other rain measurements)
** Current wind speed in m/s (hover to see current wind gust speed)